Language: 


Des rapports , des résumés tant et plus, au choix de chacun....


Données Historiques de Météogheer
Journalier Rapport pour Janvier 29, 2017 Unitée:  Les deux    Impériale   Métrique
Suivant Jour »
Journalier Hebdomadaire Mensuel Annuel Sur mesure
  Max: Min: Moyenne:
Température: 47.3 °F /  8.5 °C 32 °F /  0.0 °C 40.8 °F /  4.9 °C
Point de rosée: 43.2 °F /  6.2 °C 35.2 °F /  1.8 °C 39.4 °F /  4.1 °C
Humidité: 98% 0% 94%
Vent: 20.1mph /  32.3km/h - 7.2mph /  11.6km/h
Rafales: 23.5mph /  37.8km/h - -
Vent- - SSW
Pression: 30.1 in /  1018.2 hPa 0 in /  0.0 hPa -
Pluie: 0.29 in /  7.4 mm    
Historical Graphs
 
 
Données tabulaires pour Janvier 29, 2017
Heure Température Point de rosée Pression Vent Vent Rafales Humidité Pluie Taux (Horaire) Conditions
00:04 39.2 °F /  4.0 °C 38.1 °F /  3.4 °C 30in /  1016.1hPa Calm   6.3mph /  10.1km/h 96% 0in /  0.0mm
00:09 39.2 °F /  4.0 °C 38.1 °F /  3.4 °C 30in /  1016.1hPa SSW 6.3mph /  10.1km/h 6.5mph /  10.5km/h 96% 0in /  0.0mm
00:14 39.4 °F /  4.1 °C 38.5 °F /  3.6 °C 30in /  1016.1hPa South 5.8mph /  9.3km/h 6.7mph /  10.8km/h 96% 0in /  0.0mm
00:19 39.4 °F /  4.1 °C 38.5 °F /  3.6 °C 30in /  1016.1hPa SSW 4mph /  6.4km/h 7.2mph /  11.6km/h 96% 0in /  0.0mm
00:24 39.2 °F /  4.0 °C 38.1 °F /  3.4 °C 30in /  1016.1hPa South 5.8mph /  9.3km/h 7.2mph /  11.6km/h 96% 0in /  0.0mm
00:30 39.2 °F /  4.0 °C 38.1 °F /  3.4 °C 30in /  1016.1hPa South 7.4mph /  11.9km/h 7.4mph /  11.9km/h 96% 0in /  0.0mm
00:35 39.2 °F /  4.0 °C 38.1 °F /  3.4 °C 30in /  1016.1hPa South 4.3mph /  6.9km/h 7.8mph /  12.6km/h 96% 0in /  0.0mm
00:40 39.2 °F /  4.0 °C 38.1 °F /  3.4 °C 30in /  1016.1hPa SSW 4.3mph /  6.9km/h 8.7mph /  14.0km/h 96% 0in /  0.0mm
00:45 39.4 °F /  4.1 °C 38.5 °F /  3.6 °C 30in /  1016.1hPa SSW 2.9mph /  4.7km/h 8.7mph /  14.0km/h 96% 0in /  0.0mm
00:51 39.4 °F /  4.1 °C 38.5 °F /  3.6 °C 30in /  1016.1hPa South 1.1mph /  1.8km/h 7.6mph /  12.2km/h 96% 0in /  0.0mm
00:56 39.4 °F /  4.1 °C 38.5 °F /  3.6 °C 30in /  1016.1hPa South 3.1mph /  5.0km/h 6.3mph /  10.1km/h 96% 0in /  0.0mm
01:01 39.2 °F /  4.0 °C 38.1 °F /  3.4 °C 30in /  1016.1hPa South 5.6mph /  9.0km/h 6.7mph /  10.8km/h 96% 0in /  0.0mm
01:06 39.2 °F /  4.0 °C 38.1 °F /  3.4 °C 30in /  1016.1hPa SSW 4.3mph /  6.9km/h 6.7mph /  10.8km/h 96% 0in /  0.0mm
01:11 39.2 °F /  4.0 °C 38.1 °F /  3.4 °C 30in /  1015.1hPa SSW 4.3mph /  6.9km/h 6.5mph /  10.5km/h 96% 0in /  0.0mm
01:16 39 °F /  3.9 °C 37.9 °F /  3.3 °C 30in /  1015.1hPa SSW 6.3mph /  10.1km/h 6.3mph /  10.1km/h 96% 0in /  0.0mm
01:21 39 °F /  3.9 °C 37.9 °F /  3.3 °C 30in /  1015.1hPa South 4.3mph /  6.9km/h 6.3mph /  10.1km/h 96% 0in /  0.0mm
01:26 39 °F /  3.9 °C 37.9 °F /  3.3 °C 30in /  1015.1hPa South 1.6mph /  2.6km/h 5.4mph /  8.7km/h 96% 0in /  0.0mm
01:31 39 °F /  3.9 °C 37.9 °F /  3.3 °C 30in /  1015.1hPa South 5.8mph /  9.3km/h 5.8mph /  9.3km/h 96% 0in /  0.0mm
01:36 39.2 °F /  4.0 °C 38.1 °F /  3.4 °C 30in /  1015.1hPa SSW 4.9mph /  7.9km/h 6.5mph /  10.5km/h 96% 0in /  0.0mm
01:41 39.2 °F /  4.0 °C 38.1 °F /  3.4 °C 30in /  1015.1hPa SSW 3.6mph /  5.8km/h 6.5mph /  10.5km/h 96% 0in /  0.0mm
01:46 39.2 °F /  4.0 °C 38.1 °F /  3.4 °C 30in /  1015.1hPa SSW 4.9mph /  7.9km/h 5.6mph /  9.0km/h 96% 0in /  0.0mm
01:51 39.2 °F /  4.0 °C 38.1 °F /  3.4 °C 30in /  1015.1hPa South 4mph /  6.4km/h 5.8mph /  9.3km/h 96% 0in /  0.0mm
01:56 39.2 °F /  4.0 °C 38.1 °F /  3.4 °C 30in /  1015.1hPa WSW 5.4mph /  8.7km/h 6.3mph /  10.1km/h 96% 0in /  0.0mm
02:02 32 °F /  0.0 °C 38.3 °F /  3.5 °C 0in /  0.0hPa SSW 5.8mph /  9.3km/h 5.8mph /  9.3km/h 0% 0in /  0.0mm
02:07 39.4 °F /  4.1 °C 38.5 °F /  3.6 °C 30in /  1015.1hPa SSW 4mph /  6.4km/h 7.2mph /  11.6km/h 96% 0in /  0.0mm
02:12 39.6 °F /  4.2 °C 38.5 °F /  3.6 °C 30in /  1015.1hPa South 4.9mph /  7.9km/h 7.2mph /  11.6km/h 96% 0in /  0.0mm
02:17 39.6 °F /  4.2 °C 38.5 °F /  3.6 °C 30in /  1015.1hPa SSW 3.4mph /  5.5km/h 7.2mph /  11.6km/h 96% 0in /  0.0mm
02:22 39.4 °F /  4.1 °C 38.5 °F /  3.6 °C 30in /  1015.1hPa SW 6.5mph /  10.5km/h 7.6mph /  12.2km/h 96% 0in /  0.0mm
02:32 39.6 °F /  4.2 °C 38.5 °F /  3.6 °C 30in /  1015.1hPa SW 4.9mph /  7.9km/h 10.1mph /  16.3km/h 96% 0in /  0.0mm
02:37 39.6 °F /  4.2 °C 38.5 °F /  3.6 °C 30in /  1015.1hPa South 5.6mph /  9.0km/h 10.1mph /  16.3km/h 96% 0in /  0.0mm
02:42 39.6 °F /  4.2 °C 38.5 °F /  3.6 °C 30in /  1015.1hPa SSW 3.6mph /  5.8km/h 7.4mph /  11.9km/h 96% 0in /  0.0mm
02:47 39.6 °F /  4.2 °C 38.5 °F /  3.6 °C 30in /  1015.1hPa Calm   6.3mph /  10.1km/h 96% 0in /  0.0mm
02:52 39.4 °F /  4.1 °C 38.5 °F /  3.6 °C 30in /  1015.1hPa SSW 2.9mph /  4.7km/h 5.8mph /  9.3km/h 96% 0in /  0.0mm
02:57 39.2 °F /  4.0 °C 38.1 °F /  3.4 °C 30in /  1015.1hPa SSW 3.8mph /  6.1km/h 5.6mph /  9.0km/h 96% 0in /  0.0mm
03:02 39 °F /  3.9 °C 37.9 °F /  3.3 °C 30in /  1015.1hPa SSW 3.8mph /  6.1km/h 5.4mph /  8.7km/h 96% 0in /  0.0mm
03:07 39 °F /  3.9 °C 37.9 °F /  3.3 °C 30in /  1015.1hPa Calm   5.6mph /  9.0km/h 96% 0in /  0.0mm
03:12 38.7 °F /  3.7 °C 37.8 °F /  3.2 °C 30in /  1015.1hPa South 3.6mph /  5.8km/h 5.6mph /  9.0km/h 96% 0in /  0.0mm
03:17 38.5 °F /  3.6 °C 37.6 °F /  3.1 °C 30in /  1015.1hPa South 3.8mph /  6.1km/h 4.7mph /  7.6km/h 96% 0in /  0.0mm
03:22 38.5 °F /  3.6 °C 37.2 °F /  2.9 °C 30in /  1015.1hPa South 4mph /  6.4km/h 5.6mph /  9.0km/h 96% 0in /  0.0mm
03:27 38.5 °F /  3.6 °C 37.2 °F /  2.9 °C 30in /  1015.1hPa South 4mph /  6.4km/h 5.8mph /  9.3km/h 96% 0in /  0.0mm
03:32 38.1 °F /  3.4 °C 37 °F /  2.8 °C 30in /  1015.1hPa SSW 4.7mph /  7.6km/h 6.3mph /  10.1km/h 96% 0in /  0.0mm
03:37 38.5 °F /  3.6 °C 37.6 °F /  3.1 °C 30in /  1015.1hPa South 4.9mph /  7.9km/h 7.2mph /  11.6km/h 97% 0in /  0.0mm
03:42 38.5 °F /  3.6 °C 37.8 °F /  3.2 °C 30in /  1015.1hPa SSW 4.9mph /  7.9km/h 7.4mph /  11.9km/h 97% 0in /  0.0mm
03:47 38.7 °F /  3.7 °C 37.9 °F /  3.3 °C 30in /  1015.1hPa South 6mph /  9.7km/h 9.4mph /  15.1km/h 97% 0in /  0.0mm
03:52 38.7 °F /  3.7 °C 37.9 °F /  3.3 °C 30in /  1015.1hPa South 5.6mph /  9.0km/h 9.4mph /  15.1km/h 97% 0in /  0.0mm
03:57 38.5 °F /  3.6 °C 37.8 °F /  3.2 °C 30in /  1015.1hPa SSW 4mph /  6.4km/h 8.7mph /  14.0km/h 97% 0in /  0.0mm
04:02 38.5 °F /  3.6 °C 37.8 °F /  3.2 °C 30in /  1015.1hPa SSW 4mph /  6.4km/h 8.5mph /  13.7km/h 97% 0in /  0.0mm
04:07 38.5 °F /  3.6 °C 37.8 °F /  3.2 °C 29.9in /  1014.1hPa SSW 3.1mph /  5.0km/h 7.8mph /  12.6km/h 97% 0in /  0.0mm
04:12 38.5 °F /  3.6 °C 37.8 °F /  3.2 °C 29.9in /  1014.1hPa SSW 4.7mph /  7.6km/h 7.8mph /  12.6km/h 97% 0in /  0.0mm
04:17 38.5 °F /  3.6 °C 37.8 °F /  3.2 °C 29.9in /  1014.1hPa SW 2.7mph /  4.3km/h 7.8mph /  12.6km/h 97% 0in /  0.0mm
04:22 38.5 °F /  3.6 °C 37.8 °F /  3.2 °C 30in /  1015.1hPa SSW 4mph /  6.4km/h 6.5mph /  10.5km/h 97% 0in /  0.0mm
04:27 38.5 °F /  3.6 °C 37.8 °F /  3.2 °C 30in /  1015.1hPa South 4.3mph /  6.9km/h 6.5mph /  10.5km/h 97% 0in /  0.0mm
04:32 38.5 °F /  3.6 °C 37.8 °F /  3.2 °C 30in /  1015.1hPa South 4mph /  6.4km/h 5.8mph /  9.3km/h 97% 0in /  0.0mm
04:37 38.5 °F /  3.6 °C 37.6 °F /  3.1 °C 30in /  1015.1hPa WSW 7.6mph /  12.2km/h 7.6mph /  12.2km/h 97% 0in /  0.0mm
04:42 38.5 °F /  3.6 °C 37.6 °F /  3.1 °C 30in /  1015.1hPa SSW 4.3mph /  6.9km/h 7.6mph /  12.2km/h 97% 0in /  0.0mm
04:47 38.1 °F /  3.4 °C 37.4 °F /  3.0 °C 30in /  1015.1hPa SW 3.6mph /  5.8km/h 6mph /  9.7km/h 97% 0in /  0.0mm
04:52 37.9 °F /  3.3 °C 37.2 °F /  2.9 °C 30in /  1015.1hPa SSW 2.5mph /  4.0km/h 6mph /  9.7km/h 97% 0in /  0.0mm
04:57 37.9 °F /  3.3 °C 37.2 °F /  2.9 °C 30in /  1015.1hPa SSW 3.4mph /  5.5km/h 6.9mph /  11.1km/h 97% 0in /  0.0mm
05:02 37.8 °F /  3.2 °C 37 °F /  2.8 °C 30in /  1015.1hPa SSW 4.3mph /  6.9km/h 6.9mph /  11.1km/h 97% 0in /  0.0mm
05:07 37.8 °F /  3.2 °C 37 °F /  2.8 °C 30in /  1015.1hPa SSW 3.6mph /  5.8km/h 6.3mph /  10.1km/h 97% 0in /  0.0mm
05:12 37.8 °F /  3.2 °C 37 °F /  2.8 °C 30in /  1016.1hPa SW 5.6mph /  9.0km/h 5.8mph /  9.3km/h 97% 0in /  0.0mm
05:17 37.6 °F /  3.1 °C 36.9 °F /  2.7 °C 30in /  1016.1hPa SW 4mph /  6.4km/h 5.6mph /  9.0km/h 97% 0in /  0.0mm
05:22 37.6 °F /  3.1 °C 36.7 °F /  2.6 °C 30in /  1015.1hPa SSW 2mph /  3.2km/h 5.6mph /  9.0km/h 97% 0in /  0.0mm
05:27 37.2 °F /  2.9 °C 36.5 °F /  2.5 °C 30in /  1015.1hPa SSW 2mph /  3.2km/h 4.3mph /  6.9km/h 97% 0in /  0.0mm
05:32 37.2 °F /  2.9 °C 36.5 °F /  2.5 °C 30in /  1015.1hPa SSW 2.9mph /  4.7km/h 3.8mph /  6.1km/h 97% 0in /  0.0mm
05:37 36.9 °F /  2.7 °C 36.1 °F /  2.3 °C 30in /  1015.1hPa Calm   3.8mph /  6.1km/h 97% 0in /  0.0mm
05:42 36.9 °F /  2.7 °C 36.1 °F /  2.3 °C 30in /  1015.1hPa Calm   4mph /  6.4km/h 97% 0in /  0.0mm
05:47 36.9 °F /  2.7 °C 36.1 °F /  2.3 °C 30in /  1015.1hPa SSW 1.6mph /  2.6km/h 4.9mph /  7.9km/h 97% 0in /  0.0mm
05:52 36.9 °F /  2.7 °C 36.1 °F /  2.3 °C 30in /  1015.1hPa SW 2.9mph /  4.7km/h 4.9mph /  7.9km/h 97% 0in /  0.0mm
05:57 36.9 °F /  2.7 °C 36 °F /  2.2 °C 30in /  1015.1hPa South 3.6mph /  5.8km/h 5.4mph /  8.7km/h 97% 0in /  0.0mm
06:02 36.9 °F /  2.7 °C 36 °F /  2.2 °C 30in /  1015.1hPa SW 2.5mph /  4.0km/h 5.6mph /  9.0km/h 97% 0in /  0.0mm
06:07 36.9 °F /  2.7 °C 36 °F /  2.2 °C 30in /  1015.1hPa SSW 1.6mph /  2.6km/h 5.6mph /  9.0km/h 97% 0in /  0.0mm
06:12 36.9 °F /  2.7 °C 36 °F /  2.2 °C 30in /  1015.1hPa SSW 3.6mph /  5.8km/h 5.4mph /  8.7km/h 97% 0in /  0.0mm
06:17 36.9 °F /  2.7 °C 36 °F /  2.2 °C 30in /  1015.1hPa SW 2.7mph /  4.3km/h 6mph /  9.7km/h 97% 0in /  0.0mm
06:22 36.9 °F /  2.7 °C 36 °F /  2.2 °C 30in /  1016.1hPa South 1.3mph /  2.1km/h 6mph /  9.7km/h 97% 0in /  0.0mm
06:27 36.9 °F /  2.7 °C 36.3 °F /  2.4 °C 30in /  1016.1hPa SSW 4.7mph /  7.6km/h 6.3mph /  10.1km/h 98% 0in /  0.0mm
06:32 36.9 °F /  2.7 °C 36.3 °F /  2.4 °C 30in /  1016.1hPa South 1.1mph /  1.8km/h 7.2mph /  11.6km/h 98% 0in /  0.0mm
06:37 36.7 °F /  2.6 °C 36.1 °F /  2.3 °C 30in /  1016.1hPa Calm   7.2mph /  11.6km/h 98% 0in /  0.0mm
06:42 36.7 °F /  2.6 °C 36.1 °F /  2.3 °C 30in /  1016.1hPa South 4mph /  6.4km/h 5.8mph /  9.3km/h 98% 0in /  0.0mm
06:47 36.7 °F /  2.6 °C 36.1 °F /  2.3 °C 30in /  1016.1hPa SW 2.9mph /  4.7km/h 5.8mph /  9.3km/h 98% 0in /  0.0mm
06:52 36.1 °F /  2.3 °C 35.4 °F /  1.9 °C 30in /  1016.1hPa SW 3.1mph /  5.0km/h 5.8mph /  9.3km/h 97% 0in /  0.0mm
06:57 36.1 °F /  2.3 °C 35.4 °F /  1.9 °C 30in /  1016.1hPa SSW 3.4mph /  5.5km/h 4mph /  6.4km/h 97% 0in /  0.0mm
07:02 36.1 °F /  2.3 °C 35.4 °F /  1.9 °C 30in /  1016.1hPa SSW 4.5mph /  7.2km/h 5.6mph /  9.0km/h 97% 0in /  0.0mm
07:07 36.1 °F /  2.3 °C 35.2 °F /  1.8 °C 30in /  1016.1hPa Calm   5.6mph /  9.0km/h 97% 0in /  0.0mm
07:12 36.1 °F /  2.3 °C 35.2 °F /  1.8 °C 30in /  1016.1hPa SSW 3.6mph /  5.8km/h 4.7mph /  7.6km/h 97% 0in /  0.0mm
07:17 36.1 °F /  2.3 °C 35.4 °F /  1.9 °C 30in /  1016.1hPa South 7.4mph /  11.9km/h 7.4mph /  11.9km/h 98% 0in /  0.0mm
07:22 36.1 °F /  2.3 °C 35.4 °F /  1.9 °C 30in /  1016.1hPa South 3.1mph /  5.0km/h 7.8mph /  12.6km/h 98% 0in /  0.0mm
07:27 36.1 °F /  2.3 °C 35.8 °F /  2.1 °C 30in /  1016.1hPa SSW 8.5mph /  13.7km/h 8.5mph /  13.7km/h 98% 0in /  0.0mm
07:32 36.1 °F /  2.3 °C 35.8 °F /  2.1 °C 30in /  1016.1hPa South 6.3mph /  10.1km/h 8.5mph /  13.7km/h 98% 0in /  0.0mm
07:37 36.1 °F /  2.3 °C 35.4 °F /  1.9 °C 30in /  1016.1hPa SSW 5.6mph /  9.0km/h 8.1mph /  13.0km/h 98% 0in /  0.0mm
07:42 36.1 °F /  2.3 °C 35.4 °F /  1.9 °C 30in /  1016.1hPa SSW 3.8mph /  6.1km/h 7.8mph /  12.6km/h 98% 0in /  0.0mm
07:47 36.1 °F /  2.3 °C 35.4 °F /  1.9 °C 30in /  1016.1hPa South 2.7mph /  4.3km/h 6.5mph /  10.5km/h 98% 0in /  0.0mm
07:52 36 °F /  2.2 °C 35.4 °F /  1.9 °C 30in /  1016.8hPa SW 5.6mph /  9.0km/h 6.5mph /  10.5km/h 98% 0in /  0.0mm
07:57 36.1 °F /  2.3 °C 35.4 °F /  1.9 °C 30in /  1016.8hPa SSW 5.8mph /  9.3km/h 6.3mph /  10.1km/h 98% 0in /  0.0mm
07:58 36.1 °F /  2.3 °C 35.4 °F /  1.9 °C 30in /  1016.8hPa SSW 4.3mph /  6.9km/h 6.3mph /  10.1km/h 98% 0in /  0.0mm
08:03 36.1 °F /  2.3 °C 35.4 °F /  1.9 °C 30in /  1016.8hPa SSW 4.3mph /  6.9km/h 7.4mph /  11.9km/h 98% 0in /  0.0mm
08:08 36.1 °F /  2.3 °C 35.8 °F /  2.1 °C 30in /  1016.8hPa South 4.3mph /  6.9km/h 7.4mph /  11.9km/h 98% 0in /  0.0mm
08:13 36.1 °F /  2.3 °C 35.8 °F /  2.1 °C 30in /  1016.8hPa South 3.8mph /  6.1km/h 7.6mph /  12.2km/h 98% 0in /  0.0mm
08:18 36.1 °F /  2.3 °C 35.4 °F /  1.9 °C 30in /  1016.8hPa SSW 5.4mph /  8.7km/h 8.5mph /  13.7km/h 98% 0in /  0.0mm
08:23 36.1 °F /  2.3 °C 35.8 °F /  2.1 °C 30in /  1016.8hPa SSW 6.5mph /  10.5km/h 8.5mph /  13.7km/h 98% 0in /  0.0mm
08:28 36.1 °F /  2.3 °C 35.8 °F /  2.1 °C 30in /  1016.8hPa SSW 3.8mph /  6.1km/h 8.1mph /  13.0km/h 98% 0in /  0.0mm
08:33 36.3 °F /  2.4 °C 36 °F /  2.2 °C 30in /  1016.8hPa South 4.3mph /  6.9km/h 7.6mph /  12.2km/h 98% 0in /  0.0mm
08:38 36.3 °F /  2.4 °C 36 °F /  2.2 °C 30in /  1016.8hPa South 4mph /  6.4km/h 7.6mph /  12.2km/h 98% 0in /  0.0mm
08:43 36.7 °F /  2.6 °C 36.1 °F /  2.3 °C 30in /  1016.8hPa SSW 5.6mph /  9.0km/h 7.6mph /  12.2km/h 98% 0in /  0.0mm
08:48 36.3 °F /  2.4 °C 36 °F /  2.2 °C 30in /  1016.8hPa SSW 6mph /  9.7km/h 7.8mph /  12.6km/h 98% 0in /  0.0mm
08:53 36.7 °F /  2.6 °C 36.1 °F /  2.3 °C 30in /  1016.8hPa South 6mph /  9.7km/h 10.1mph /  16.3km/h 98% 0in /  0.0mm
08:58 36.7 °F /  2.6 °C 36.1 °F /  2.3 °C 30in /  1016.8hPa SSW 4mph /  6.4km/h 10.1mph /  16.3km/h 98% 0in /  0.0mm
09:03 36.7 °F /  2.6 °C 36.1 °F /  2.3 °C 30in /  1016.8hPa SSW 7.2mph /  11.6km/h 7.6mph /  12.2km/h 98% 0in /  0.0mm
09:08 36.7 °F /  2.6 °C 36.1 °F /  2.3 °C 30in /  1016.8hPa SSW 4mph /  6.4km/h 8.7mph /  14.0km/h 98% 0in /  0.0mm
09:13 36.9 °F /  2.7 °C 36.3 °F /  2.4 °C 30in /  1016.8hPa SSW 7.4mph /  11.9km/h 8.7mph /  14.0km/h 98% 0in /  0.0mm
09:18 36.9 °F /  2.7 °C 36.3 °F /  2.4 °C 30in /  1016.8hPa SSW 6.5mph /  10.5km/h 8.7mph /  14.0km/h 98% 0in /  0.0mm
09:23 36.9 °F /  2.7 °C 36.3 °F /  2.4 °C 30in /  1016.8hPa SSW 5.4mph /  8.7km/h 8.7mph /  14.0km/h 98% 0in /  0.0mm
09:25 36.9 °F /  2.7 °C 36.3 °F /  2.4 °C 30in /  1016.8hPa SSW 6mph /  9.7km/h 8.7mph /  14.0km/h 98% 0in /  0.0mm
09:30 36.9 °F /  2.7 °C 36.3 °F /  2.4 °C 30in /  1016.8hPa South 5.6mph /  9.0km/h 8.7mph /  14.0km/h 98% 0in /  0.0mm
09:35 37 °F /  2.8 °C 36.7 °F /  2.6 °C 30in /  1016.8hPa SSW 5.6mph /  9.0km/h 10.5mph /  16.9km/h 98% 0in /  0.0mm
09:40 37.2 °F /  2.9 °C 36.9 °F /  2.7 °C 30in /  1016.8hPa SSW 5.6mph /  9.0km/h 10.5mph /  16.9km/h 98% 0in /  0.0mm
09:45 37.2 °F /  2.9 °C 36.9 °F /  2.7 °C 30in /  1016.8hPa South 7.8mph /  12.6km/h 10.1mph /  16.3km/h 98% 0in /  0.0mm
09:50 37.6 °F /  3.1 °C 37 °F /  2.8 °C 30in /  1016.8hPa SSW 4.9mph /  7.9km/h 11mph /  17.7km/h 98% 0in /  0.0mm
09:55 37.6 °F /  3.1 °C 37 °F /  2.8 °C 30in /  1016.8hPa SSW 5.6mph /  9.0km/h 11mph /  17.7km/h 98% 0in /  0.0mm
10:00 37.6 °F /  3.1 °C 37 °F /  2.8 °C 30in /  1016.8hPa South 5.4mph /  8.7km/h 8.7mph /  14.0km/h 98% 0in /  0.0mm
10:05 37.8 °F /  3.2 °C 37.2 °F /  2.9 °C 30in /  1016.8hPa SW 4.9mph /  7.9km/h 10.5mph /  16.9km/h 98% 0in /  0.0mm
10:10 37.9 °F /  3.3 °C 37.6 °F /  3.1 °C 30in /  1016.8hPa South 7.8mph /  12.6km/h 10.5mph /  16.9km/h 98% 0in /  0.0mm
10:15 38.5 °F /  3.6 °C 37.9 °F /  3.3 °C 30in /  1016.8hPa South 4.3mph /  6.9km/h 8.9mph /  14.3km/h 98% 0in /  0.0mm
10:20 38.8 °F /  3.8 °C 38.5 °F /  3.6 °C 30in /  1016.8hPa SW 8.1mph /  13.0km/h 10.1mph /  16.3km/h 98% 0in /  0.0mm
10:25 39.2 °F /  4.0 °C 38.7 °F /  3.7 °C 30in /  1016.8hPa SSW 9.8mph /  15.8km/h 10.1mph /  16.3km/h 98% 0in /  0.0mm
10:30 39.4 °F /  4.1 °C 38.8 °F /  3.8 °C 30in /  1016.8hPa SSW 8.7mph /  14.0km/h 12.8mph /  20.6km/h 98% 0in /  0.0mm
10:35 39.7 °F /  4.3 °C 39.2 °F /  4.0 °C 30in /  1016.8hPa SSW 6.7mph /  10.8km/h 12.8mph /  20.6km/h 98% 0in /  0.0mm
10:40 40.3 °F /  4.6 °C 39.7 °F /  4.3 °C 30in /  1016.8hPa South 6mph /  9.7km/h 13mph /  20.9km/h 98% 0in /  0.0mm
10:45 40.5 °F /  4.7 °C 39.9 °F /  4.4 °C 30in /  1016.8hPa South 5.6mph /  9.0km/h 13mph /  20.9km/h 98% 0in /  0.0mm
10:50 41.2 °F /  5.1 °C 40.6 °F /  4.8 °C 30in /  1016.8hPa South 5.8mph /  9.3km/h 10.7mph /  17.2km/h 98% 0in /  0.0mm
10:55 41.9 °F /  5.5 °C 41.4 °F /  5.2 °C 30in /  1016.8hPa SSW 12.8mph /  20.6km/h 12.8mph /  20.6km/h 98% 0in /  0.0mm
11:00 41.9 °F /  5.5 °C 41.4 °F /  5.2 °C 30in /  1016.8hPa South 7.6mph /  12.2km/h 12.8mph /  20.6km/h 98% 0in /  0.0mm
11:05 41.9 °F /  5.5 °C 41.4 °F /  5.2 °C 30in /  1016.8hPa South 8.5mph /  13.7km/h 12.1mph /  19.5km/h 98% 0in /  0.0mm
11:10 41.9 °F /  5.5 °C 41.2 °F /  5.1 °C 30in /  1016.8hPa South 10.5mph /  16.9km/h 12.8mph /  20.6km/h 97% 0in /  0.0mm
11:15 42.1 °F /  5.6 °C 41.4 °F /  5.2 °C 30in /  1016.8hPa South 6mph /  9.7km/h 15.2mph /  24.5km/h 97% 0in /  0.0mm
11:20 42.6 °F /  5.9 °C 41.5 °F /  5.3 °C 30in /  1016.8hPa SSW 7.2mph /  11.6km/h 15.2mph /  24.5km/h 96% 0in /  0.0mm
11:25 43.2 °F /  6.2 °C 42.1 °F /  5.6 °C 30in /  1016.1hPa South 5.6mph /  9.0km/h 13.9mph /  22.4km/h 96% 0in /  0.0mm
11:30 43.3 °F /  6.3 °C 42.3 °F /  5.7 °C 30in /  1016.1hPa South 10.3mph /  16.6km/h 11mph /  17.7km/h 96% 0in /  0.0mm
11:35 43.5 °F /  6.4 °C 42.4 °F /  5.8 °C 30in /  1016.1hPa SSE 8.7mph /  14.0km/h 13mph /  20.9km/h 96% 0in /  0.0mm
11:40 43.5 °F /  6.4 °C 42.1 °F /  5.6 °C 30in /  1016.1hPa SSW 10.5mph /  16.9km/h 13.2mph /  21.2km/h 94% 0in /  0.0mm
11:45 43.3 °F /  6.3 °C 41.4 °F /  5.2 °C 30in /  1016.1hPa South 8.5mph /  13.7km/h 13.4mph /  21.6km/h 93% 0in /  0.0mm
11:50 43.5 °F /  6.4 °C 41.4 °F /  5.2 °C 30in /  1016.1hPa South 8.5mph /  13.7km/h 16.3mph /  26.2km/h 92% 0in /  0.0mm
11:55 43.9 °F /  6.6 °C 41.5 °F /  5.3 °C 30in /  1016.8hPa South 7.4mph /  11.9km/h 16.3mph /  26.2km/h 92% 0in /  0.0mm
12:00 44.1 °F /  6.7 °C 41.5 °F /  5.3 °C 30in /  1016.8hPa SSW 6mph /  9.7km/h 12.5mph /  20.1km/h 91% 0in /  0.0mm
12:05 44.2 °F /  6.8 °C 41.4 °F /  5.2 °C 30in /  1016.8hPa SSW 11mph /  17.7km/h 12.5mph /  20.1km/h 90% 0in /  0.0mm
12:11 44.2 °F /  6.8 °C 41.5 °F /  5.3 °C 30in /  1016.8hPa SSW 11mph /  17.7km/h 12.5mph /  20.1km/h 90% 0in /  0.0mm
12:16 44.8 °F /  7.1 °C 41.7 °F /  5.4 °C 30in /  1016.8hPa SSW 10.3mph /  16.6km/h 12.5mph /  20.1km/h 89% 0in /  0.0mm
12:21 44.8 °F /  7.1 °C 41.4 °F /  5.2 °C 30in /  1016.8hPa SSW 7.8mph /  12.6km/h 14.8mph /  23.8km/h 88% 0in /  0.0mm
12:26 44.4 °F /  6.9 °C 40.8 °F /  4.9 °C 30in /  1016.8hPa SSE 9.8mph /  15.8km/h 14.8mph /  23.8km/h 87% 0in /  0.0mm
12:31 44.4 °F /  6.9 °C 40.8 °F /  4.9 °C 30in /  1016.8hPa South 6mph /  9.7km/h 19.5mph /  31.4km/h 87% 0in /  0.0mm
12:41 44.1 °F /  6.7 °C 40.6 °F /  4.8 °C 30in /  1016.8hPa South 10.7mph /  17.2km/h 12.8mph /  20.6km/h 88% 0in /  0.0mm
12:46 44.4 °F /  6.9 °C 41.2 °F /  5.1 °C 30in /  1016.8hPa South 8.9mph /  14.3km/h 11mph /  17.7km/h 88% 0in /  0.0mm
12:51 45 °F /  7.2 °C 41.5 °F /  5.3 °C 30in /  1016.8hPa SSW 10.5mph /  16.9km/h 11mph /  17.7km/h 88% 0in /  0.0mm
12:56 45.1 °F /  7.3 °C 41.9 °F /  5.5 °C 30.1in /  1018.2hPa South 10.5mph /  16.9km/h 10.7mph /  17.2km/h 88% 0in /  0.0mm
13:01 45.3 °F /  7.4 °C 41.7 °F /  5.4 °C 30.1in /  1018.2hPa SSW 10.7mph /  17.2km/h 15.2mph /  24.5km/h 87% 0in /  0.0mm
13:06 45.7 °F /  7.6 °C 41.5 °F /  5.3 °C 30.1in /  1018.2hPa SSE 5.8mph /  9.3km/h 15.2mph /  24.5km/h 86% 0in /  0.0mm
13:11 45.9 °F /  7.7 °C 41.7 °F /  5.4 °C 30in /  1016.8hPa SSW 8.1mph /  13.0km/h 16.1mph /  25.9km/h 86% 0in /  0.0mm
13:16 45.7 °F /  7.6 °C 41.4 °F /  5.2 °C 30in /  1016.8hPa South 6mph /  9.7km/h 16.1mph /  25.9km/h 85% 0in /  0.0mm
13:21 45.9 °F /  7.7 °C 41.5 °F /  5.3 °C 30in /  1016.8hPa South 7.6mph /  12.2km/h 13mph /  20.9km/h 85% 0in /  0.0mm
13:26 45.9 °F /  7.7 °C 41.7 °F /  5.4 °C 30in /  1016.8hPa South 8.9mph /  14.3km/h 13mph /  20.9km/h 85% 0in /  0.0mm
13:31 46 °F /  7.8 °C 41.5 °F /  5.3 °C 30in /  1016.8hPa South 13mph /  20.9km/h 13mph /  20.9km/h 84% 0in /  0.0mm
13:36 46.2 °F /  7.9 °C 41.4 °F /  5.2 °C 30in /  1016.8hPa SSW 9.8mph /  15.8km/h 13mph /  20.9km/h 83% 0in /  0.0mm
13:41 46.6 °F /  8.1 °C 41.5 °F /  5.3 °C 30in /  1016.8hPa SW 7.8mph /  12.6km/h 13mph /  20.9km/h 83% 0in /  0.0mm
13:46 46.8 °F /  8.2 °C 41.9 °F /  5.5 °C 30in /  1016.8hPa SSW 5.6mph /  9.0km/h 11.9mph /  19.1km/h 83% 0in /  0.0mm
13:51 46.9 °F /  8.3 °C 42.1 °F /  5.6 °C 30in /  1016.8hPa South 6mph /  9.7km/h 12.5mph /  20.1km/h 83% 0in /  0.0mm
13:56 46.9 °F /  8.3 °C 41.7 °F /  5.4 °C 30in /  1016.1hPa South 10.5mph /  16.9km/h 12.5mph /  20.1km/h 82% 0in /  0.0mm
14:01 47.3 °F /  8.5 °C 42.1 °F /  5.6 °C 30in /  1016.1hPa SSW 11mph /  17.7km/h 12.1mph /  19.5km/h 82% 0in /  0.0mm
14:06 47.3 °F /  8.5 °C 42.1 °F /  5.6 °C 30in /  1016.1hPa SSW 5.4mph /  8.7km/h 11mph /  17.7km/h 82% 0in /  0.0mm
14:11 47.3 °F /  8.5 °C 42.1 °F /  5.6 °C 30in /  1016.1hPa SSE 7.8mph /  12.6km/h 12.3mph /  19.8km/h 82% 0in /  0.0mm
14:16 47.3 °F /  8.5 °C 41.7 °F /  5.4 °C 30in /  1016.1hPa South 8.5mph /  13.7km/h 12.3mph /  19.8km/h 81% 0in /  0.0mm
14:21 46.8 °F /  8.2 °C 41 °F /  5.0 °C 30in /  1016.1hPa South 8.7mph /  14.0km/h 14.1mph /  22.7km/h 80% 0in /  0.0mm
14:26 46.8 °F /  8.2 °C 41.5 °F /  5.3 °C 30in /  1016.1hPa SSW 6.9mph /  11.1km/h 14.1mph /  22.7km/h 82% 0in /  0.0mm
14:31 46.6 °F /  8.1 °C 41.4 °F /  5.2 °C 30in /  1016.1hPa SSW 14.3mph /  23.0km/h 14.3mph /  23.0km/h 82% 0in /  0.0mm
14:36 46.6 °F /  8.1 °C 41.4 °F /  5.2 °C 30in /  1016.1hPa South 10.7mph /  17.2km/h 14.3mph /  23.0km/h 82% 0in /  0.0mm
14:41 45.9 °F /  7.7 °C 40.6 °F /  4.8 °C 30in /  1016.1hPa SSW 12.3mph /  19.8km/h 14.5mph /  23.3km/h 82% 0in /  0.0mm
14:46 45.9 °F /  7.7 °C 40.6 °F /  4.8 °C 30in /  1016.1hPa South 10.3mph /  16.6km/h 14.5mph /  23.3km/h 82% 0in /  0.0mm
14:51 45.7 °F /  7.6 °C 40.6 °F /  4.8 °C 30in /  1016.1hPa South 6.9mph /  11.1km/h 15.4mph /  24.8km/h 83% 0in /  0.0mm
14:56 45.7 °F /  7.6 °C 41 °F /  5.0 °C 30in /  1016.1hPa South 8.1mph /  13.0km/h 15.4mph /  24.8km/h 84% 0in /  0.0mm
15:01 45.1 °F /  7.3 °C 40.3 °F /  4.6 °C 30in /  1016.1hPa SSW 13.9mph /  22.4km/h 13.9mph /  22.4km/h 83% 0in /  0.0mm
15:06 45.1 °F /  7.3 °C 40.5 °F /  4.7 °C 30in /  1016.1hPa SSW 9.8mph /  15.8km/h 13.9mph /  22.4km/h 84% 0in /  0.0mm
15:11 45.1 °F /  7.3 °C 40.8 °F /  4.9 °C 30in /  1016.1hPa SSW 7.8mph /  12.6km/h 11.4mph /  18.3km/h 85% 0in /  0.0mm
15:16 45 °F /  7.2 °C 40.3 °F /  4.6 °C 30in /  1016.1hPa SSW 6.3mph /  10.1km/h 11mph /  17.7km/h 84% 0in /  0.0mm
15:21 44.4 °F /  6.9 °C 39.9 °F /  4.4 °C 30in /  1016.1hPa SSW 7.4mph /  11.9km/h 11mph /  17.7km/h 84% 0in /  0.0mm
15:26 44.1 °F /  6.7 °C 39.7 °F /  4.3 °C 30in /  1016.1hPa South 6.5mph /  10.5km/h 13mph /  20.9km/h 85% 0in /  0.0mm
15:31 44.1 °F /  6.7 °C 39.7 °F /  4.3 °C 30in /  1016.1hPa SSW 9.6mph /  15.4km/h 13mph /  20.9km/h 85% 0in /  0.0mm
15:36 44.1 °F /  6.7 °C 40.1 °F /  4.5 °C 30in /  1016.1hPa South 8.1mph /  13.0km/h 11mph /  17.7km/h 86% 0in /  0.0mm
15:41 44.1 °F /  6.7 °C 40.1 °F /  4.5 °C 30in /  1016.1hPa SSW 7.4mph /  11.9km/h 13mph /  20.9km/h 86% 0in /  0.0mm
15:46 44.1 °F /  6.7 °C 40.1 °F /  4.5 °C 30in /  1016.1hPa SSW 8.5mph /  13.7km/h 13.6mph /  21.9km/h 86% 0in /  0.0mm
15:51 44.1 °F /  6.7 °C 40.1 °F /  4.5 °C 30in /  1016.1hPa South 9.8mph /  15.8km/h 15.4mph /  24.8km/h 86% 0in /  0.0mm
15:56 43.9 °F /  6.6 °C 39.9 °F /  4.4 °C 30in /  1016.1hPa South 8.5mph /  13.7km/h 15.4mph /  24.8km/h 86% 0in /  0.0mm
16:01 43.5 °F /  6.4 °C 39.7 °F /  4.3 °C 30in /  1016.1hPa South 8.5mph /  13.7km/h 14.8mph /  23.8km/h 86% 0in /  0.0mm
16:06 43.5 °F /  6.4 °C 39.6 °F /  4.2 °C 30in /  1016.1hPa SSW 10.3mph /  16.6km/h 12.3mph /  19.8km/h 86% 0in /  0.0mm
16:11 43.2 °F /  6.2 °C 39.2 °F /  4.0 °C 30in /  1016.1hPa SSW 9.8mph /  15.8km/h 15.2mph /  24.5km/h 86% 0in /  0.0mm
16:13 43.2 °F /  6.2 °C 39.2 °F /  4.0 °C 30in /  1016.1hPa SSW 10.5mph /  16.9km/h 15.2mph /  24.5km/h 86% 0in /  0.0mm
16:18 43 °F /  6.1 °C 39.4 °F /  4.1 °C 30in /  1016.1hPa South 10.7mph /  17.2km/h 15.2mph /  24.5km/h 87% 0in /  0.0mm
16:22 42.8 °F /  6.0 °C 39.2 °F /  4.0 °C 30in /  1015.1hPa SSW 8.7mph /  14.0km/h 13mph /  20.9km/h 87% 0in /  0.0mm
16:28 42.8 °F /  6.0 °C 39.2 °F /  4.0 °C 30in /  1015.1hPa South 7.6mph /  12.2km/h 12.1mph /  19.5km/h 87% 0in /  0.0mm
16:32 42.8 °F /  6.0 °C 39.6 °F /  4.2 °C 30in /  1015.1hPa South 9.2mph /  14.8km/h 11.2mph /  18.0km/h 88% 0in /  0.0mm
16:37 42.8 °F /  6.0 °C 39.6 °F /  4.2 °C 30in /  1016.1hPa SSW 8.7mph /  14.0km/h 11mph /  17.7km/h 88% 0in /  0.0mm
16:42 42.8 °F /  6.0 °C 39.7 °F /  4.3 °C 30in /  1016.1hPa SSW 9.4mph /  15.1km/h 13.9mph /  22.4km/h 89% 0in /  0.0mm
16:47 42.6 °F /  5.9 °C 39.6 °F /  4.2 °C 30in /  1016.1hPa SSW 12.1mph /  19.5km/h 13.9mph /  22.4km/h 89% 0in /  0.0mm
16:53 42.6 °F /  5.9 °C 39.6 °F /  4.2 °C 30in /  1016.1hPa South 11mph /  17.7km/h 13mph /  20.9km/h 89% 0in /  0.0mm
16:57 42.6 °F /  5.9 °C 39.9 °F /  4.4 °C 30in /  1016.1hPa South 5.4mph /  8.7km/h 13mph /  20.9km/h 90% 0in /  0.0mm
17:02 42.4 °F /  5.8 °C 39.7 °F /  4.3 °C 30in /  1016.1hPa SSW 9.8mph /  15.8km/h 15.2mph /  24.5km/h 90% 0in /  0.0mm
17:07 42.4 °F /  5.8 °C 39.9 °F /  4.4 °C 30in /  1015.1hPa SSE 5.6mph /  9.0km/h 15.2mph /  24.5km/h 91% 0in /  0.0mm
17:12 42.4 °F /  5.8 °C 39.9 °F /  4.4 °C 30in /  1015.1hPa South 8.1mph /  13.0km/h 14.5mph /  23.3km/h 91% 0in /  0.0mm
17:17 42.4 °F /  5.8 °C 39.9 °F /  4.4 °C 30in /  1015.1hPa South 8.1mph /  13.0km/h 14.5mph /  23.3km/h 91% 0in /  0.0mm
17:23 42.4 °F /  5.8 °C 40.3 °F /  4.6 °C 30in /  1015.1hPa South 9.6mph /  15.4km/h 13mph /  20.9km/h 92% 0in /  0.0mm
17:28 42.4 °F /  5.8 °C 40.3 °F /  4.6 °C 30in /  1015.1hPa South 10.1mph /  16.3km/h 13mph /  20.9km/h 92% 0in /  0.0mm
17:33 42.3 °F /  5.7 °C 40.1 °F /  4.5 °C 30in /  1015.1hPa South 7.8mph /  12.6km/h 13mph /  20.9km/h 92% 0in /  0.0mm
17:38 42.3 °F /  5.7 °C 40.1 °F /  4.5 °C 30in /  1015.1hPa South 9.8mph /  15.8km/h 12.3mph /  19.8km/h 92% 0in /  0.0mm
17:43 42.3 °F /  5.7 °C 40.1 °F /  4.5 °C 30in /  1015.1hPa SSE 8.5mph /  13.7km/h 15.2mph /  24.5km/h 92% 0in /  0.0mm
17:48 42.3 °F /  5.7 °C 40.5 °F /  4.7 °C 30in /  1015.1hPa South 8.1mph /  13.0km/h 15.2mph /  24.5km/h 93% 0in /  0.0mm
17:53 42.3 °F /  5.7 °C 40.5 °F /  4.7 °C 30in /  1015.1hPa South 6mph /  9.7km/h 13mph /  20.9km/h 93% 0in /  0.0mm
17:58 42.1 °F /  5.6 °C 40.3 °F /  4.6 °C 30in /  1015.1hPa SSE 13mph /  20.9km/h 14.5mph /  23.3km/h 93% 0in /  0.0mm
18:03 42.1 °F /  5.6 °C 40.3 °F /  4.6 °C 30in /  1015.1hPa South 7.6mph /  12.2km/h 15.2mph /  24.5km/h 93% 0in /  0.0mm
18:08 42.1 °F /  5.6 °C 40.3 °F /  4.6 °C 30in /  1015.1hPa SSW 10.7mph /  17.2km/h 15.2mph /  24.5km/h 93% 0in /  0.0mm
18:13 41.9 °F /  5.5 °C 39.9 °F /  4.4 °C 30in /  1015.1hPa South 10.5mph /  16.9km/h 13.4mph /  21.6km/h 93% 0in /  0.0mm
18:18 41.9 °F /  5.5 °C 39.9 °F /  4.4 °C 30in /  1015.1hPa South 8.1mph /  13.0km/h 13.9mph /  22.4km/h 93% 0in /  0.0mm
18:23 41.9 °F /  5.5 °C 40.3 °F /  4.6 °C 30in /  1015.1hPa SSW 13mph /  20.9km/h 13.9mph /  22.4km/h 94% 0in /  0.0mm
18:28 41.9 °F /  5.5 °C 40.3 °F /  4.6 °C 30in /  1015.1hPa South 14.1mph /  22.7km/h 16.1mph /  25.9km/h 94% 0in /  0.0mm
18:33 41.9 °F /  5.5 °C 40.3 °F /  4.6 °C 30in /  1015.1hPa SSE 7.4mph /  11.9km/h 16.1mph /  25.9km/h 94% 0in /  0.0mm
18:38 41.9 °F /  5.5 °C 40.3 °F /  4.6 °C 30in /  1015.1hPa SSW 8.5mph /  13.7km/h 14.1mph /  22.7km/h 94% 0in /  0.0mm
18:43 41.9 °F /  5.5 °C 40.3 °F /  4.6 °C 30in /  1015.1hPa SSE 6.3mph /  10.1km/h 15.2mph /  24.5km/h 94% 0in /  0.0mm
18:48 41.7 °F /  5.4 °C 40.5 °F /  4.7 °C 30in /  1015.1hPa South 7.8mph /  12.6km/h 15.2mph /  24.5km/h 95% 0in /  0.0mm
18:53 41.7 °F /  5.4 °C 40.5 °F /  4.7 °C 29.9in /  1014.1hPa South 10.1mph /  16.3km/h 13.6mph /  21.9km/h 95% 0in /  0.0mm
18:58 41.7 °F /  5.4 °C 40.5 °F /  4.7 °C 29.9in /  1014.1hPa South 6.3mph /  10.1km/h 12.5mph /  20.1km/h 95% 0in /  0.0mm
19:03 41.7 °F /  5.4 °C 40.6 °F /  4.8 °C 29.9in /  1014.1hPa SSW 6.5mph /  10.5km/h 13.2mph /  21.2km/h 96% 0in /  0.0mm
19:08 41.7 °F /  5.4 °C 40.6 °F /  4.8 °C 30in /  1015.1hPa SSW 10.5mph /  16.9km/h 13.2mph /  21.2km/h 96% 0in /  0.0mm
19:13 41.7 °F /  5.4 °C 40.6 °F /  4.8 °C 30in /  1015.1hPa South 6.7mph /  10.8km/h 14.3mph /  23.0km/h 96% 0in /  0.0mm
19:18 41.9 °F /  5.5 °C 40.8 °F /  4.9 °C 30in /  1015.1hPa South 9.8mph /  15.8km/h 14.3mph /  23.0km/h 96% 0in /  0.0mm
19:23 41.9 °F /  5.5 °C 41.2 °F /  5.1 °C 29.9in /  1014.1hPa South 8.7mph /  14.0km/h 15.2mph /  24.5km/h 97% 0.01in /  0.3mm
19:28 41.9 °F /  5.5 °C 41.2 °F /  5.1 °C 29.9in /  1014.1hPa SSW 7.4mph /  11.9km/h 15.2mph /  24.5km/h 97% 0.01in /  0.3mm
19:33 41.9 °F /  5.5 °C 41.2 °F /  5.1 °C 29.9in /  1014.1hPa South 5.4mph /  8.7km/h 14.1mph /  22.7km/h 97% 0.01in /  0.3mm
19:38 41.9 °F /  5.5 °C 41.2 °F /  5.1 °C 30in /  1015.1hPa SSW 10.1mph /  16.3km/h 12.8mph /  20.6km/h 97% 0.03in /  0.8mm
19:43 41.9 °F /  5.5 °C 41.2 °F /  5.1 °C 30in /  1015.1hPa South 7.6mph /  12.2km/h 13.6mph /  21.9km/h 97% 0.03in /  0.8mm
19:48 41.9 °F /  5.5 °C 41.2 °F /  5.1 °C 30in /  1015.1hPa SSE 12.8mph /  20.6km/h 13.6mph /  21.9km/h 97% 0.04in /  1.0mm
19:53 41.9 °F /  5.5 °C 41.2 °F /  5.1 °C 30in /  1015.1hPa South 8.5mph /  13.7km/h 15.7mph /  25.3km/h 97% 0.04in /  1.0mm
19:58 41.9 °F /  5.5 °C 41.2 °F /  5.1 °C 30in /  1015.1hPa SSE 10.7mph /  17.2km/h 15.7mph /  25.3km/h 97% 0.05in /  1.3mm
20:03 41.9 °F /  5.5 °C 41.2 °F /  5.1 °C 30in /  1015.1hPa South 7.8mph /  12.6km/h 13.2mph /  21.2km/h 97% 0.05in /  1.3mm
20:08 41.9 °F /  5.5 °C 41.2 °F /  5.1 °C 30in /  1015.1hPa SSE 10.7mph /  17.2km/h 14.3mph /  23.0km/h 97% 0.06in /  1.5mm
20:13 41.9 °F /  5.5 °C 41.4 °F /  5.2 °C 30in /  1015.1hPa SSW 8.1mph /  13.0km/h 14.3mph /  23.0km/h 98% 0.06in /  1.5mm
20:18 42.1 °F /  5.6 °C 41.5 °F /  5.3 °C 30in /  1015.1hPa South 7.4mph /  11.9km/h 17.7mph /  28.5km/h 98% 0.06in /  1.5mm
20:23 42.1 °F /  5.6 °C 41.5 °F /  5.3 °C 30in /  1015.1hPa SSW 8.7mph /  14.0km/h 17.7mph /  28.5km/h 98% 0.07in /  1.8mm
20:28 42.1 °F /  5.6 °C 41.5 °F /  5.3 °C 30in /  1015.1hPa SSW 10.5mph /  16.9km/h 14.3mph /  23.0km/h 98% 0.07in /  1.8mm
20:33 42.1 °F /  5.6 °C 41.5 °F /  5.3 °C 30in /  1015.1hPa SSE 8.7mph /  14.0km/h 16.1mph /  25.9km/h 98% 0.08in /  2.0mm
20:38 42.3 °F /  5.7 °C 41.7 °F /  5.4 °C 29.9in /  1014.1hPa South 7.8mph /  12.6km/h 19.5mph /  31.4km/h 98% 0.07in /  1.8mm
20:43 42.3 °F /  5.7 °C 41.7 °F /  5.4 °C 29.9in /  1014.1hPa South 9.6mph /  15.4km/h 19.5mph /  31.4km/h 98% 0.08in /  2.0mm
20:48 42.3 °F /  5.7 °C 41.7 °F /  5.4 °C 29.9in /  1014.1hPa South 12.3mph /  19.8km/h 17.2mph /  27.7km/h 98% 0.07in /  1.8mm
20:53 42.3 °F /  5.7 °C 41.7 °F /  5.4 °C 29.9in /  1014.1hPa SSE 15.9mph /  25.6km/h 17.2mph /  27.7km/h 98% 0.08in /  2.0mm
20:58 42.3 °F /  5.7 °C 41.7 °F /  5.4 °C 29.9in /  1014.1hPa SSW 7.8mph /  12.6km/h 15.9mph /  25.6km/h 98% 0.07in /  1.8mm
21:03 42.3 °F /  5.7 °C 41.7 °F /  5.4 °C 29.9in /  1014.1hPa South 4mph /  6.4km/h 15.9mph /  25.6km/h 98% 0.07in /  1.8mm
21:08 42.3 °F /  5.7 °C 41.7 °F /  5.4 °C 29.9in /  1013.1hPa SSE 6.3mph /  10.1km/h 23.5mph /  37.8km/h 98% 0.07in /  1.8mm
21:13 42.4 °F /  5.8 °C 41.9 °F /  5.5 °C 29.9in /  1013.1hPa South 11mph /  17.7km/h 23.5mph /  37.8km/h 98% 0.07in /  1.8mm
21:18 42.4 °F /  5.8 °C 41.9 °F /  5.5 °C 29.9in /  1013.1hPa SSE 10.1mph /  16.3km/h 22.1mph /  35.6km/h 98% 0.07in /  1.8mm
21:23 42.6 °F /  5.9 °C 41.7 °F /  5.4 °C 29.9in /  1013.1hPa SSE 7.4mph /  11.9km/h 15.2mph /  24.5km/h 97% 0.06in /  1.5mm
21:28 42.6 °F /  5.9 °C 41.7 °F /  5.4 °C 29.9in /  1013.1hPa South 10.5mph /  16.9km/h 16.3mph /  26.2km/h 97% 0.06in /  1.5mm
21:33 42.6 °F /  5.9 °C 41.7 °F /  5.4 °C 29.9in /  1013.1hPa South 7.8mph /  12.6km/h 16.8mph /  27.0km/h 97% 0.06in /  1.5mm
21:38 42.6 °F /  5.9 °C 41.7 °F /  5.4 °C 29.9in /  1013.1hPa South 7.6mph /  12.2km/h 16.8mph /  27.0km/h 97% 0.06in /  1.5mm
21:43 42.8 °F /  6.0 °C 42.1 °F /  5.6 °C 29.9in /  1014.1hPa South 9.8mph /  15.8km/h 14.8mph /  23.8km/h 97% 0.06in /  1.5mm
21:48 42.8 °F /  6.0 °C 42.1 °F /  5.6 °C 29.9in /  1014.1hPa SSW 12.3mph /  19.8km/h 16.8mph /  27.0km/h 97% 0.07in /  1.8mm
21:53 42.8 °F /  6.0 °C 42.3 °F /  5.7 °C 29.9in /  1013.1hPa SSW 7.8mph /  12.6km/h 16.8mph /  27.0km/h 98% 0.06in /  1.5mm
21:58 42.8 °F /  6.0 °C 42.3 °F /  5.7 °C 29.9in /  1013.1hPa South 20.1mph /  32.3km/h 21.9mph /  35.2km/h 98% 0.07in /  1.8mm
22:03 42.8 °F /  6.0 °C 42.3 °F /  5.7 °C 29.9in /  1013.1hPa SSE 13.2mph /  21.2km/h 21.9mph /  35.2km/h 98% 0.06in /  1.5mm
22:08 42.8 °F /  6.0 °C 42.3 °F /  5.7 °C 29.9in /  1013.1hPa South 14.5mph /  23.3km/h 17mph /  27.4km/h 98% 0.07in /  1.8mm
22:13 42.8 °F /  6.0 °C 42.3 °F /  5.7 °C 29.9in /  1013.1hPa SSW 6.7mph /  10.8km/h 18.1mph /  29.1km/h 98% 0.07in /  1.8mm
22:18 42.8 °F /  6.0 °C 42.3 °F /  5.7 °C 29.9in /  1013.1hPa South 10.1mph /  16.3km/h 18.1mph /  29.1km/h 98% 0.07in /  1.8mm
22:23 42.8 °F /  6.0 °C 42.3 °F /  5.7 °C 29.9in /  1012.1hPa South 7.8mph /  12.6km/h 17mph /  27.4km/h 98% 0.07in /  1.8mm
22:28 42.8 °F /  6.0 °C 42.3 °F /  5.7 °C 29.9in /  1012.1hPa South 14.3mph /  23.0km/h 15.2mph /  24.5km/h 98% 0.07in /  1.8mm
22:33 42.8 °F /  6.0 °C 42.3 °F /  5.7 °C 29.9in /  1012.1hPa South 8.9mph /  14.3km/h 14.3mph /  23.0km/h 98% 0.06in /  1.5mm
22:38 42.8 °F /  6.0 °C 42.3 °F /  5.7 °C 29.9in /  1012.1hPa SSE 11.2mph /  18.0km/h 19.2mph /  30.9km/h 98% 0.07in /  1.8mm
22:43 42.8 °F /  6.0 °C 42.3 °F /  5.7 °C 29.9in /  1012.1hPa SSW 8.9mph /  14.3km/h 19.2mph /  30.9km/h 98% 0.07in /  1.8mm
22:48 43 °F /  6.1 °C 42.4 °F /  5.8 °C 29.9in /  1012.1hPa SSW 11mph /  17.7km/h 16.1mph /  25.9km/h 98% 0.06in /  1.5mm
22:53 43 °F /  6.1 °C 42.4 °F /  5.8 °C 29.9in /  1011.1hPa South 14.8mph /  23.8km/h 15.7mph /  25.3km/h 98% 0.06in /  1.5mm
22:58 43.2 °F /  6.2 °C 42.6 °F /  5.9 °C 29.9in /  1011.1hPa SSW 16.1mph /  25.9km/h 16.1mph /  25.9km/h 98% 0.07in /  1.8mm
23:03 43.2 °F /  6.2 °C 42.6 °F /  5.9 °C 29.9in /  1011.1hPa South 12.3mph /  19.8km/h 17.2mph /  27.7km/h 98% 0.07in /  1.8mm
23:08 43.3 °F /  6.3 °C 42.8 °F /  6.0 °C 29.9in /  1011.1hPa SSW 12.8mph /  20.6km/h 19.7mph /  31.7km/h 98% 0.06in /  1.5mm
23:13 43.3 °F /  6.3 °C 42.8 °F /  6.0 °C 29.9in /  1011.1hPa SSW 17.4mph /  28.0km/h 19.7mph /  31.7km/h 98% 0.06in /  1.5mm
23:18 43.5 °F /  6.4 °C 43 °F /  6.1 °C 29.9in /  1011.1hPa SSW 17.7mph /  28.5km/h 17.7mph /  28.5km/h 98% 0.06in /  1.5mm
23:23 43.5 °F /  6.4 °C 43 °F /  6.1 °C 29.9in /  1011.1hPa South 12.5mph /  20.1km/h 18.6mph /  29.9km/h 98% 0.05in /  1.3mm
23:28 43.5 °F /  6.4 °C 43 °F /  6.1 °C 29.9in /  1011.1hPa SSW 12.5mph /  20.1km/h 18.6mph /  29.9km/h 98% 0.08in /  2.0mm
23:33 43.5 °F /  6.4 °C 43 °F /  6.1 °C 29.9in /  1011.1hPa South 10.7mph /  17.2km/h 17.7mph /  28.5km/h 98% 0.08in /  2.0mm
23:38 43.5 °F /  6.4 °C 43 °F /  6.1 °C 29.9in /  1011.1hPa SSW 13.9mph /  22.4km/h 17.7mph /  28.5km/h 98% 0.07in /  1.8mm
23:43 43.5 °F /  6.4 °C 43 °F /  6.1 °C 29.9in /  1011.1hPa SSW 8.7mph /  14.0km/h 17mph /  27.4km/h 98% 0.06in /  1.5mm
23:48 43.5 °F /  6.4 °C 43 °F /  6.1 °C 29.9in /  1011.1hPa SSW 9.4mph /  15.1km/h 17mph /  27.4km/h 98% 0.06in /  1.5mm
23:53 43.5 °F /  6.4 °C 43.2 °F /  6.2 °C 29.9in /  1011.1hPa South 17.9mph /  28.8km/h 17.9mph /  28.8km/h 98% 0.06in /  1.5mm
23:58 43.5 °F /  6.4 °C 43.2 °F /  6.2 °C 29.9in /  1011.1hPa SW 10.5mph /  16.9km/h 17.9mph /  28.8km/h 98% 0.03in /  0.8mm
Données Historique de Météo Turbie

Mise a jour : 26/05/2018 15:46:12
Généré par Cumulus 1.9.4 (1099)